Time;durP1;ratioP1;P1;durP2;ratioP2;P2;SDS_P1;SDS_P2;PMS_P1;PMS_P2;Temp;Humidity;BMP_temperature;BMP_pressure;BME280_temperature;BME280_humidity;BME280_pressure;Samples;Min_cycle;Max_cycle;Signal;HPM_P1;HPM_P2
2022/12/14 09:52:28;;;;;;;11.63;5.73;;;0.30;99.90;;;;;;2691977;23;20243;-73
2022/12/14 09:54:58;;;;;;;11.10;5.80;;;0.40;99.90;;;;;;4877951;29;20219;-73
2022/12/14 09:57:32;;;;;;;13.87;6.13;;;0.60;99.90;;;;;;4878317;29;20215;-73
2022/12/14 10:00:00;;;;;;;18.43;6.80;;;0.80;99.90;;;;;;4878241;29;20238;-73
2022/12/14 10:02:37;;;;;;;12.33;5.40;;;0.90;99.90;;;;;;4878472;29;20218;-74
2022/12/14 10:05:19;;;;;;;19.90;6.33;;;0.60;99.90;;;;;;4878366;29;20270;-74
2022/12/14 10:07:58;;;;;;;15.17;6.40;;;0.30;99.90;;;;;;4878514;29;20214;-74
2022/12/14 10:10:32;;;;;;;12.10;4.90;;;0.20;99.90;;;;;;4878291;29;20247;-74
2022/12/14 10:13:07;;;;;;;16.13;5.70;;;0.40;99.90;;;;;;4878723;29;20213;-73
2022/12/14 10:15:42;;;;;;;18.73;6.67;;;0.60;99.90;;;;;;4878940;29;20206;-74
2022/12/14 10:18:40;;;;;;;13.13;5.23;;;0.60;99.90;;;;;;4878895;29;20210;-74
2022/12/14 10:21:13;;;;;;;17.90;6.30;;;0.70;99.90;;;;;;4881621;29;20211;-74
2022/12/14 10:23:45;;;;;;;15.73;6.77;;;0.40;99.90;;;;;;4881559;29;20217;-74
2022/12/14 10:26:18;;;;;;;17.33;5.67;;;0.40;99.90;;;;;;4881991;29;20238;-74
2022/12/14 10:28:51;;;;;;;13.60;5.90;;;0.60;99.90;;;;;;4881917;29;20231;-74
2022/12/14 10:31:29;;;;;;;16.70;6.23;;;0.80;99.90;;;;;;4881887;29;20579;-72
2022/12/14 10:33:59;;;;;;;12.87;6.17;;;0.90;99.90;;;;;;4881868;29;20210;-73
2022/12/14 10:36:30;;;;;;;15.17;5.50;;;1.10;99.90;;;;;;4882010;29;20207;-74
2022/12/14 10:39:00;;;;;;;15.07;6.23;;;0.80;99.90;;;;;;4881639;29;20251;-74
2022/12/14 10:41:38;;;;;;;17.10;6.03;;;0.80;99.90;;;;;;4881732;29;20298;-74
2022/12/14 10:44:17;;;;;;;11.37;5.83;;;0.70;99.90;;;;;;4881721;29;20219;-75
2022/12/14 10:46:51;;;;;;;11.43;5.80;;;0.80;99.90;;;;;;4881983;29;20222;-74
2022/12/14 10:49:22;;;;;;;13.73;5.83;;;0.80;99.90;;;;;;4881711;29;20231;-71
2022/12/14 10:51:55;;;;;;;14.13;7.10;;;1.00;99.90;;;;;;4881523;29;20246;-72
2022/12/14 10:54:32;;;;;;;17.97;6.70;;;1.20;99.90;;;;;;4881391;29;20225;-72
2022/12/14 10:57:00;;;;;;;10.40;5.13;;;1.30;99.90;;;;;;4881605;29;20245;-72
2022/12/14 10:59:33;;;;;;;8.73;5.20;;;1.10;99.90;;;;;;4881610;29;20590;-73
2022/12/14 11:02:06;;;;;;;12.37;5.60;;;1.20;99.90;;;;;;4881237;29;20215;-73
2022/12/14 11:04:39;;;;;;;13.30;6.00;;;1.00;99.90;;;;;;4881238;29;20215;-71
2022/12/14 11:07:09;;;;;;;10.33;5.03;;;1.10;99.90;;;;;;4881165;29;20662;-74
2022/12/14 11:09:37;;;;;;;12.80;5.63;;;1.10;99.90;;;;;;4881086;29;20322;-74
2022/12/14 11:12:07;;;;;;;12.90;5.77;;;1.00;99.90;;;;;;4881321;29;20729;-72
2022/12/14 11:14:36;;;;;;;12.33;5.70;;;1.10;99.90;;;;;;4881427;29;20207;-75
2022/12/14 11:17:04;;;;;;;19.33;6.10;;;0.90;99.90;;;;;;4881127;29;20215;-74
2022/12/14 11:19:31;;;;;;;11.97;5.33;;;0.90;99.90;;;;;;4881416;29;20235;-74
2022/12/14 11:22:10;;;;;;;8.43;4.70;;;1.00;99.90;;;;;;4881267;29;20218;-75
2022/12/14 11:24:45;;;;;;;11.70;5.83;;;0.90;99.90;;;;;;4880886;29;20213;-75
2022/12/14 11:27:17;;;;;;;12.57;5.37;;;1.10;99.90;;;;;;4881048;29;20215;-74
2022/12/14 11:29:48;;;;;;;16.33;6.33;;;1.20;99.90;;;;;;4880802;29;20238;-74
2022/12/14 11:32:24;;;;;;;12.10;5.93;;;1.40;99.90;;;;;;4881078;29;20219;-74
2022/12/14 11:34:57;;;;;;;11.33;5.33;;;1.50;99.90;;;;;;4880707;29;20214;-74
2022/12/14 11:37:26;;;;;;;12.07;4.93;;;1.50;99.90;;;;;;4880849;29;20215;-74
2022/12/14 11:39:56;;;;;;;14.53;5.73;;;1.60;99.90;;;;;;4880579;29;20242;-73
2022/12/14 11:42:25;;;;;;;11.50;5.40;;;1.60;99.90;;;;;;4880699;29;20215;-74
2022/12/14 11:44:52;;;;;;;12.63;5.70;;;1.50;99.90;;;;;;4881006;29;20233;-73
2022/12/14 11:47:20;;;;;;;10.97;6.10;;;1.40;99.90;;;;;;4880773;29;20218;-74
2022/12/14 11:49:49;;;;;;;13.87;5.83;;;1.20;99.90;;;;;;4880655;29;20235;-74
2022/12/14 11:52:18;;;;;;;13.60;6.10;;;0.90;99.90;;;;;;4880450;29;20241;-74
2022/12/14 11:54:47;;;;;;;13.90;5.60;;;1.10;99.90;;;;;;4868591;29;20211;-73
2022/12/14 11:57:25;;;;;;;11.20;5.67;;;1.20;99.90;;;;;;4870706;29;20218;-73
2022/12/14 11:59:55;;;;;;;14.40;5.43;;;1.40;99.90;;;;;;4873026;29;20238;-73
2022/12/14 12:02:28;;;;;;;12.23;5.30;;;1.40;99.90;;;;;;4872592;29;20210;-73
2022/12/14 12:05:00;;;;;;;11.97;6.27;;;1.60;99.90;;;;;;4872207;29;20298;-73
2022/12/14 12:07:32;;;;;;;11.80;5.50;;;1.60;99.90;;;;;;4875683;29;20251;-73
2022/12/14 12:10:16;;;;;;;15.13;5.93;;;1.50;99.90;;;;;;4871338;29;20258;-73
2022/12/14 12:12:51;;;;;;;14.97;6.20;;;1.40;99.90;;;;;;4870349;29;20215;-73
2022/12/14 12:15:23;;;;;;;12.47;5.47;;;1.50;99.90;;;;;;4869672;29;20207;-73
2022/12/14 12:17:54;;;;;;;11.90;5.77;;;1.60;99.90;;;;;;4870830;29;20211;-73
2022/12/14 12:20:29;;;;;;;11.03;5.57;;;1.50;99.90;;;;;;4867900;29;20227;-74
2022/12/14 12:23:00;;;;;;;13.43;6.20;;;1.50;99.90;;;;;;4876395;29;20726;-72
2022/12/14 12:25:32;;;;;;;13.47;6.37;;;1.30;99.90;;;;;;4878822;29;20298;-73
2022/12/14 12:28:09;;;;;;;14.20;5.93;;;1.20;99.90;;;;;;4875325;29;20216;-73
2022/12/14 12:30:39;;;;;;;11.77;5.47;;;1.30;99.90;;;;;;4879537;29;20230;-73
2022/12/14 12:33:18;;;;;;;13.30;6.13;;;1.30;99.90;;;;;;4873843;29;20211;-73
2022/12/14 12:35:49;;;;;;;14.17;5.50;;;1.40;99.90;;;;;;4869116;29;20215;-73
2022/12/14 12:38:23;;;;;;;8.87;5.37;;;1.30;99.90;;;;;;4865854;29;20268;-73
2022/12/14 12:41:00;;;;;;;13.40;5.47;;;1.30;99.90;;;;;;4868618;29;20215;-73
2022/12/14 12:43:33;;;;;;;10.97;4.93;;;1.50;99.90;;;;;;4867902;29;20218;-73
2022/12/14 12:46:05;;;;;;;10.73;5.17;;;1.60;99.90;;;;;;4878202;29;20234;-73
2022/12/14 12:48:38;;;;;;;12.03;5.83;;;1.50;99.90;;;;;;4865026;29;20230;-73
2022/12/14 12:51:11;;;;;;;18.73;5.60;;;1.60;99.90;;;;;;4867833;29;20244;-73
2022/12/14 12:53:42;;;;;;;15.83;6.67;;;1.50;99.90;;;;;;4864388;29;20309;-73
2022/12/14 12:56:13;;;;;;;11.63;6.00;;;1.50;99.90;;;;;;4866423;29;20302;-73
2022/12/14 12:58:42;;;;;;;16.63;7.13;;;1.40;99.90;;;;;;4869605;29;20216;-72
2022/12/14 13:01:19;;;;;;;12.97;5.53;;;1.20;99.90;;;;;;4866231;29;20203;-73
2022/12/14 13:03:50;;;;;;;12.57;5.17;;;1.00;99.90;;;;;;4874717;29;20247;-73
2022/12/14 13:06:24;;;;;;;10.87;5.03;;;1.10;99.90;;;;;;4876447;29;20207;-73
2022/12/14 13:08:56;;;;;;;11.23;6.13;;;0.90;99.90;;;;;;4871647;29;20598;-72
2022/12/14 13:11:28;;;;;;;14.47;5.87;;;1.10;99.90;;;;;;4876239;29;20235;-73
2022/12/14 13:14:02;;;;;;;12.73;7.00;;;1.40;99.90;;;;;;4864365;29;20216;-73
2022/12/14 13:16:33;;;;;;;16.93;7.33;;;1.70;99.90;;;;;;4875539;29;20238;-73
2022/12/14 13:19:08;;;;;;;15.10;6.27;;;1.90;99.90;;;;;;4876564;29;20326;-72
2022/12/14 13:21:39;;;;;;;19.23;6.43;;;2.00;99.90;;;;;;4871386;29;20574;-71
2022/12/14 13:24:11;;;;;;;15.80;6.77;;;1.80;99.90;;;;;;4871803;29;20207;-71
2022/12/14 13:26:58;;;;;;;14.33;6.80;;;1.40;99.90;;;;;;4872911;29;20734;-71
2022/12/14 13:29:42;;;;;;;11.00;5.90;;;1.20;99.90;;;;;;4872496;29;20235;-69
2022/12/14 13:32:17;;;;;;;19.37;6.40;;;1.30;99.90;;;;;;4867518;29;20241;-68
2022/12/14 13:34:54;;;;;;;16.67;6.17;;;1.60;99.90;;;;;;4869948;29;20573;-72
2022/12/14 13:37:47;;;;;;;10.57;5.47;;;1.80;99.90;;;;;;4867139;29;20227;-72
2022/12/14 13:40:48;;;;;;;15.27;5.80;;;1.80;99.90;;;;;;4871596;29;20240;-72
2022/12/14 13:43:37;;;;;;;12.17;5.47;;;2.00;99.90;;;;;;4870426;29;20219;-72
2022/12/14 13:46:20;;;;;;;15.90;6.23;;;2.00;99.90;;;;;;4860257;29;20668;-71
2022/12/14 13:48:50;;;;;;;13.53;6.33;;;1.90;99.90;;;;;;4874889;29;20239;-70
2022/12/14 13:51:23;;;;;;;18.13;6.83;;;1.90;99.90;;;;;;4869391;29;20244;-73
2022/12/14 13:53:55;;;;;;;12.43;5.73;;;1.80;99.90;;;;;;4873478;29;20211;-72
2022/12/14 13:56:24;;;;;;;9.57;4.73;;;1.80;99.90;;;;;;4879318;29;20271;-72
2022/12/14 13:58:53;;;;;;;13.03;5.57;;;1.80;99.90;;;;;;4877406;29;20232;-69
2022/12/14 14:01:58;;;;;;;12.13;6.33;;;1.90;99.90;;;;;;4873904;29;20209;-72
2022/12/14 14:04:28;;;;;;;18.93;6.67;;;1.50;99.90;;;;;;4876440;29;20318;-70
2022/12/14 14:06:55;;;;;;;14.60;5.70;;;1.40;99.90;;;;;;4875687;29;20224;-72
2022/12/14 14:09:56;;;;;;;12.30;5.70;;;1.60;99.90;;;;;;4881882;29;20231;-72
2022/12/14 14:12:47;;;;;;;14.73;7.07;;;1.70;99.90;;;;;;4881341;29;20276;-72
2022/12/14 14:15:36;;;;;;;13.57;6.43;;;1.70;99.90;;;;;;4881928;29;20302;-72
2022/12/14 14:18:25;;;;;;;13.10;5.73;;;1.70;99.90;;;;;;4872552;29;20207;-73
2022/12/14 14:20:52;;;;;;;13.23;6.20;;;1.60;99.90;;;;;;4881760;29;20208;-70
2022/12/14 14:23:32;;;;;;;12.97;5.93;;;1.40;99.90;;;;;;4881560;29;20211;-70
2022/12/14 14:26:24;;;;;;;15.30;5.60;;;1.30;99.90;;;;;;4871012;29;20217;-70
2022/12/14 14:29:23;;;;;;;11.83;5.27;;;1.60;99.90;;;;;;4872009;29;20560;-72
2022/12/14 14:31:53;;;;;;;13.77;5.40;;;1.70;99.90;;;;;;4881434;29;20243;-72
2022/12/14 14:34:30;;;;;;;13.33;6.33;;;1.70;99.90;;;;;;4867099;29;20207;-72
2022/12/14 14:36:57;;;;;;;13.37;5.57;;;1.70;99.90;;;;;;4866120;29;20677;-72
2022/12/14 14:39:33;;;;;;;12.37;5.67;;;1.40;99.90;;;;;;4876803;29;20238;-72
2022/12/14 14:42:03;;;;;;;14.73;6.10;;;1.30;99.90;;;;;;4876971;29;20215;-72
2022/12/14 14:44:37;;;;;;;17.20;5.83;;;1.40;99.90;;;;;;4872265;29;20219;-72
2022/12/14 14:47:13;;;;;;;14.03;5.97;;;1.40;99.90;;;;;;4867816;29;20698;-72
2022/12/14 14:49:43;;;;;;;9.63;5.10;;;1.20;99.90;;;;;;4880668;29;20237;-71
2022/12/14 14:52:59;;;;;;;15.60;5.60;;;1.20;99.90;;;;;;4874037;29;20244;-72
2022/12/14 14:55:57;;;;;;;13.03;6.10;;;1.10;99.90;;;;;;4831134;29;20616;-72
2022/12/14 14:58:27;;;;;;;13.53;5.47;;;1.00;99.90;;;;;;4877005;29;20207;-71
2022/12/14 15:01:00;;;;;;;15.50;6.00;;;0.90;99.90;;;;;;4876319;29;20214;-71
2022/12/14 15:03:35;;;;;;;13.87;5.93;;;1.00;99.90;;;;;;4878163;29;20667;-72
2022/12/14 15:06:03;;;;;;;12.67;5.80;;;1.10;99.90;;;;;;4880531;29;20210;-72
2022/12/14 15:08:34;;;;;;;12.50;5.67;;;1.20;99.90;;;;;;4880389;29;20570;-72
2022/12/14 15:11:05;;;;;;;9.77;5.20;;;1.40;99.90;;;;;;4880869;29;20660;-71
2022/12/14 15:13:42;;;;;;;16.03;7.10;;;1.20;99.90;;;;;;4880862;29;20215;-72
2022/12/14 15:16:21;;;;;;;16.10;7.17;;;1.00;99.90;;;;;;4880795;29;20207;-70
2022/12/14 15:18:48;;;;;;;12.93;5.03;;;0.80;99.90;;;;;;4880714;29;20239;-70
2022/12/14 15:21:18;;;;;;;18.17;6.83;;;0.60;99.90;;;;;;4880903;29;20220;-70
2022/12/14 15:23:47;;;;;;;15.73;6.00;;;0.50;99.90;;;;;;4880781;29;20207;-70
2022/12/14 15:26:17;;;;;;;22.30;6.37;;;0.40;99.90;;;;;;4881010;29;20212;-70
2022/12/14 15:28:48;;;;;;;12.70;5.73;;;0.30;99.90;;;;;;4884266;29;20227;-70
2022/12/14 15:31:15;;;;;;;12.47;6.27;;;0.20;99.90;;;;;;4884774;29;20275;-71
2022/12/14 15:33:43;;;;;;;15.70;6.43;;;0.10;99.90;;;;;;4883345;29;20222;-73
2022/12/14 15:36:17;;;;;;;16.90;5.67;;;0.00;99.90;;;;;;4881004;29;20540;-72
2022/12/14 15:38:52;;;;;;;11.37;5.73;;;-0.10;99.90;;;;;;4880022;29;20721;-72
2022/12/14 15:41:19;;;;;;;11.07;5.43;;;-0.10;99.90;;;;;;4880128;29;20213;-71
2022/12/14 15:43:48;;;;;;;13.60;6.13;;;-0.10;99.90;;;;;;4880457;29;20211;-72
2022/12/14 15:46:18;;;;;;;12.00;6.47;;;-0.10;99.90;;;;;;4880370;29;20215;-72
2022/12/14 15:48:45;;;;;;;14.30;5.83;;;-0.10;99.90;;;;;;4880616;29;20239;-72
2022/12/14 15:51:14;;;;;;;12.90;5.70;;;-0.20;99.90;;;;;;4880085;29;20214;-72
2022/12/14 15:53:45;;;;;;;13.53;5.80;;;-0.30;99.90;;;;;;4878477;29;20215;-71
2022/12/14 15:56:19;;;;;;;20.03;5.70;;;-0.40;99.90;;;;;;4871748;29;20204;-72
2022/12/14 15:58:46;;;;;;;17.53;6.93;;;-0.50;99.90;;;;;;4879873;29;20712;-72
2022/12/14 16:01:19;;;;;;;12.83;6.23;;;-0.60;99.90;;;;;;4879578;29;20214;-72
2022/12/14 16:03:48;;;;;;;12.77;6.63;;;-0.20;99.90;;;;;;4879747;29;20217;-72
2022/12/14 16:06:16;;;;;;;23.20;7.90;;;-0.20;99.90;;;;;;4879837;29;20215;-72
2022/12/14 16:08:59;;;;;;;24.97;6.23;;;-0.30;99.90;;;;;;4879539;29;20226;-72
2022/12/14 16:11:32;;;;;;;21.67;5.57;;;-0.40;99.90;;;;;;4879698;29;20219;-72
2022/12/14 16:14:02;;;;;;;15.57;6.00;;;-0.50;99.90;;;;;;4879681;29;20207;-73
2022/12/14 16:16:29;;;;;;;16.27;5.97;;;-0.70;99.90;;;;;;4879166;29;20211;-72
2022/12/14 16:18:56;;;;;;;21.43;5.10;;;-0.70;99.90;;;;;;4878971;29;20245;-72
2022/12/14 16:21:27;;;;;;;15.97;5.70;;;-0.80;99.90;;;;;;4878600;29;20221;-72
2022/12/14 16:23:56;;;;;;;19.43;6.33;;;-0.80;99.90;;;;;;4879760;29;20215;-72
2022/12/14 16:26:24;;;;;;;14.60;6.60;;;-0.70;99.90;;;;;;4872215;29;20218;-72
2022/12/14 16:29:06;;;;;;;13.57;6.03;;;-0.90;99.90;;;;;;4874843;29;20564;-72
2022/12/14 16:31:33;;;;;;;12.90;5.50;;;-0.90;99.90;;;;;;4879514;29;20360;-72
2022/12/14 16:34:08;;;;;;;14.40;6.20;;;-0.90;99.90;;;;;;4878999;29;20219;-72
2022/12/14 16:36:36;;;;;;;14.30;6.13;;;-1.00;99.90;;;;;;4879336;29;20207;-72
2022/12/14 16:39:07;;;;;;;22.77;6.53;;;-1.00;99.90;;;;;;4878786;29;20227;-72
2022/12/14 16:41:36;;;;;;;10.20;4.97;;;-1.00;99.90;;;;;;4879320;29;20218;-72
2022/12/14 16:44:05;;;;;;;14.57;6.10;;;-1.00;99.90;;;;;;4879030;29;20215;-72
2022/12/14 16:46:32;;;;;;;12.43;5.90;;;-1.10;99.90;;;;;;4879324;29;20218;-72
2022/12/14 16:49:21;;;;;;;13.20;5.27;;;-1.10;99.90;;;;;;4879301;29;20612;-72
2022/12/14 16:51:57;;;;;;;12.37;6.10;;;-1.10;99.90;;;;;;4879254;29;20279;-72
2022/12/14 16:54:29;;;;;;;10.17;5.77;;;-1.20;99.90;;;;;;4867742;29;20221;-73
2022/12/14 16:56:59;;;;;;;19.63;6.27;;;-1.30;99.90;;;;;;4879196;29;20219;-72
2022/12/14 16:59:30;;;;;;;21.40;5.97;;;-1.30;99.90;;;;;;4879274;29;20227;-71
2022/12/14 17:01:56;;;;;;;15.57;6.53;;;-1.30;99.90;;;;;;4878957;29;20214;-72
2022/12/14 17:04:27;;;;;;;15.10;6.83;;;-1.30;99.90;;;;;;4878979;29;20221;-71
2022/12/14 17:06:56;;;;;;;20.70;6.97;;;-1.30;99.90;;;;;;4879114;29;20207;-72
2022/12/14 17:09:27;;;;;;;10.43;5.67;;;-1.30;99.90;;;;;;4878825;29;20230;-72
2022/12/14 17:11:57;;;;;;;12.47;6.17;;;-1.30;99.90;;;;;;4878851;29;20266;-72
2022/12/14 17:14:24;;;;;;;10.03;5.13;;;-1.30;99.90;;;;;;4879347;29;20219;-72
2022/12/14 17:16:56;;;;;;;12.50;6.53;;;-1.10;99.90;;;;;;4878957;29;20217;-72
2022/12/14 17:19:28;;;;;;;11.10;6.47;;;-1.30;99.90;;;;;;4879013;29;20238;-72
2022/12/14 17:21:56;;;;;;;15.70;6.47;;;-1.30;99.90;;;;;;4867939;29;20211;-72
2022/12/14 17:24:23;;;;;;;16.40;7.30;;;-1.30;99.90;;;;;;4878785;29;20598;-72
2022/12/14 17:26:52;;;;;;;16.73;6.60;;;-1.30;99.90;;;;;;4878839;29;20582;-72
2022/12/14 17:29:20;;;;;;;16.73;7.50;;;-1.40;99.90;;;;;;4880580;29;20748;-72
2022/12/14 17:31:48;;;;;;;25.20;8.87;;;-1.50;99.90;;;;;;4882655;29;20658;-72
2022/12/14 17:34:15;;;;;;;20.60;8.80;;;-1.50;99.90;;;;;;4881653;29;20215;-72
2022/12/14 17:36:41;;;;;;;16.30;7.30;;;-1.50;99.90;;;;;;4883203;29;20215;-72
2022/12/14 17:39:08;;;;;;;17.00;7.63;;;-1.50;99.90;;;;;;4881905;29;20728;-73
2022/12/14 17:41:39;;;;;;;17.37;8.47;;;-1.60;99.90;;;;;;4883019;29;20619;-73
2022/12/14 17:44:13;;;;;;;16.53;7.37;;;-1.60;99.90;;;;;;4882714;29;20219;-73
2022/12/14 17:46:40;;;;;;;24.17;9.90;;;-1.60;99.90;;;;;;4882382;29;20211;-69
2022/12/14 17:49:07;;;;;;;18.93;8.60;;;-1.70;99.90;;;;;;4882145;29;20235;-70
2022/12/14 17:51:40;;;;;;;19.87;8.17;;;-1.70;99.90;;;;;;4881894;29;20207;-72
2022/12/14 17:54:14;;;;;;;18.33;8.33;;;-1.70;99.90;;;;;;4874535;29;20254;-72
2022/12/14 17:56:40;;;;;;;18.57;9.40;;;-1.70;99.90;;;;;;4862879;29;20215;-69
2022/12/14 17:59:09;;;;;;;19.80;8.37;;;-1.60;99.90;;;;;;4862903;29;20240;-69
2022/12/14 18:01:36;;;;;;;10.10;5.60;;;-1.70;99.90;;;;;;4863101;29;20216;-71
2022/12/14 18:04:03;;;;;;;13.57;7.47;;;-1.60;99.90;;;;;;4863354;29;20223;-72
2022/12/14 18:06:30;;;;;;;18.77;9.47;;;-1.10;99.90;;;;;;4863560;29;20660;-73
2022/12/14 18:08:57;;;;;;;27.23;10.53;;;-1.20;99.90;;;;;;4863700;29;20240;-73
2022/12/14 18:11:26;;;;;;;21.43;10.17;;;-1.20;99.90;;;;;;4863793;29;20575;-73
2022/12/14 18:13:54;;;;;;;25.13;10.37;;;-1.40;99.90;;;;;;4863433;29;20235;-73
2022/12/14 18:16:24;;;;;;;35.83;10.50;;;-1.70;99.90;;;;;;4863860;29;20216;-71
2022/12/14 18:18:52;;;;;;;25.40;10.10;;;-1.80;99.90;;;;;;4863352;29;20707;-73
2022/12/14 18:21:22;;;;;;;21.63;10.93;;;-1.70;99.90;;;;;;4863588;29;20216;-73
2022/12/14 18:23:50;;;;;;;22.43;9.37;;;-1.80;99.90;;;;;;4863701;29;20216;-72
2022/12/14 18:26:19;;;;;;;18.97;9.70;;;-1.90;99.90;;;;;;4863367;29;20222;-73
2022/12/14 18:28:46;;;;;;;22.00;10.00;;;-2.00;99.90;;;;;;4863294;29;20240;-72
2022/12/14 18:31:20;;;;;;;23.93;9.87;;;-2.00;99.90;;;;;;4863012;29;20755;-73
2022/12/14 18:33:48;;;;;;;27.67;10.53;;;-2.00;99.90;;;;;;4863359;29;20275;-73
2022/12/14 18:36:18;;;;;;;36.27;9.33;;;-2.10;99.90;;;;;;4863257;29;20218;-72
2022/12/14 18:38:45;;;;;;;24.23;12.00;;;-2.10;99.90;;;;;;4862931;29;20357;-73
2022/12/14 18:41:14;;;;;;;19.20;10.60;;;-2.20;99.90;;;;;;4862218;29;20241;-73
2022/12/14 18:43:41;;;;;;;28.10;10.63;;;-2.20;99.90;;;;;;4863333;29;20216;-74
2022/12/14 18:46:08;;;;;;;21.73;10.30;;;-2.20;99.90;;;;;;4863270;29;20624;-74
2022/12/14 18:48:35;;;;;;;21.30;9.40;;;-2.30;99.90;;;;;;4863024;29;20214;-73
2022/12/14 18:51:04;;;;;;;25.37;9.87;;;-2.20;99.90;;;;;;4863141;29;20216;-74
2022/12/14 18:53:31;;;;;;;26.07;9.77;;;-2.30;99.90;;;;;;4862844;29;20244;-73
2022/12/14 18:55:58;;;;;;;19.90;8.63;;;-2.40;99.90;;;;;;4862765;29;20679;-73
2022/12/14 18:58:27;;;;;;;19.43;9.03;;;-2.40;99.90;;;;;;4863319;29;20216;-74
2022/12/14 19:00:56;;;;;;;18.47;8.87;;;-2.40;99.90;;;;;;4863089;29;20674;-73
2022/12/14 19:03:24;;;;;;;24.47;9.33;;;-2.50;99.90;;;;;;4862811;29;20698;-74
2022/12/14 19:05:51;;;;;;;19.40;10.57;;;-2.40;99.90;;;;;;4862542;29;20303;-73
2022/12/14 19:08:19;;;;;;;18.63;8.07;;;-2.40;99.90;;;;;;4862560;29;20227;-73
2022/12/14 19:10:47;;;;;;;19.77;9.47;;;-2.40;99.90;;;;;;4862849;29;20600;-73
2022/12/14 19:13:16;;;;;;;18.63;7.93;;;-2.40;99.90;;;;;;4862551;29;20598;-74
2022/12/14 19:15:43;;;;;;;25.37;6.53;;;-2.40;99.90;;;;;;4862407;29;20308;-73
2022/12/14 19:18:10;;;;;;;19.07;10.60;;;-2.20;99.90;;;;;;4862327;29;20222;-73
2022/12/14 19:20:37;;;;;;;26.53;11.47;;;-2.30;99.90;;;;;;4862279;29;20624;-73
2022/12/14 19:23:04;;;;;;;20.57;10.53;;;-2.40;99.90;;;;;;4862493;29;20575;-74
2022/12/14 19:25:32;;;;;;;25.40;11.50;;;-2.40;99.90;;;;;;4862563;29;20216;-73
2022/12/14 19:27:59;;;;;;;27.83;12.07;;;-2.40;99.90;;;;;;4862118;29;20660;-73
2022/12/14 19:30:26;;;;;;;28.73;12.63;;;-2.50;99.90;;;;;;4862371;29;20232;-73
2022/12/14 19:32:55;;;;;;;26.60;10.93;;;-2.40;99.90;;;;;;4862119;29;20235;-73
2022/12/14 19:35:23;;;;;;;27.43;13.20;;;-2.40;99.90;;;;;;4862135;29;20222;-73
2022/12/14 19:37:51;;;;;;;24.27;11.73;;;-2.40;99.90;;;;;;4862069;29;20228;-73
2022/12/14 19:40:18;;;;;;;26.37;11.80;;;-2.50;99.90;;;;;;4862002;29;20242;-73
2022/12/14 19:42:46;;;;;;;22.60;10.27;;;-2.50;99.90;;;;;;4862157;29;20220;-73
2022/12/14 19:45:14;;;;;;;29.37;12.27;;;-2.70;99.90;;;;;;4861920;29;20218;-73
2022/12/14 19:47:41;;;;;;;24.33;10.60;;;-2.90;99.90;;;;;;4861879;29;20696;-73
2022/12/14 19:50:08;;;;;;;25.53;13.00;;;-2.90;99.90;;;;;;4862057;29;20271;-73
2022/12/14 19:52:35;;;;;;;25.70;12.03;;;-2.90;99.90;;;;;;4861790;29;20239;-73
2022/12/14 19:55:02;;;;;;;32.53;11.57;;;-2.90;99.90;;;;;;4861563;29;20222;-73
2022/12/14 19:57:29;;;;;;;27.10;11.93;;;-3.00;99.90;;;;;;4862173;29;20281;-73
2022/12/14 19:59:58;;;;;;;26.07;11.43;;;-3.00;99.90;;;;;;4861626;29;20611;-73
2022/12/14 20:02:25;;;;;;;26.40;13.60;;;-3.00;99.90;;;;;;4861699;29;20216;-73
2022/12/14 20:04:52;;;;;;;26.23;12.07;;;-3.00;99.90;;;;;;4861997;29;20216;-72
2022/12/14 20:07:19;;;;;;;24.80;11.23;;;-2.90;99.90;;;;;;4861604;29;20212;-73
2022/12/14 20:09:46;;;;;;;19.67;11.60;;;-2.80;99.90;;;;;;4861690;29;20235;-73
2022/12/14 20:12:13;;;;;;;27.70;11.73;;;-2.90;99.90;;;;;;4861840;29;20208;-72
2022/12/14 20:14:40;;;;;;;28.23;13.03;;;-2.90;99.90;;;;;;4861378;29;20332;-74
2022/12/14 20:17:10;;;;;;;25.63;12.53;;;-2.90;99.90;;;;;;4861619;29;20567;-73
2022/12/14 20:19:38;;;;;;;21.60;10.83;;;-2.90;99.90;;;;;;4861234;29;20595;-73
2022/12/14 20:22:05;;;;;;;28.87;11.63;;;-3.00;99.90;;;;;;4861613;29;20212;-73
2022/12/14 20:24:32;;;;;;;27.10;12.73;;;-3.00;99.90;;;;;;4861333;29;20216;-74
2022/12/14 20:26:59;;;;;;;20.50;11.33;;;-3.10;99.90;;;;;;4861425;29;20223;-73
2022/12/14 20:29:26;;;;;;;20.53;11.57;;;-3.00;99.90;;;;;;4861192;29;20402;-73
2022/12/14 20:31:54;;;;;;;15.43;9.40;;;-2.90;99.90;;;;;;4861172;29;20238;-72
2022/12/14 20:34:22;;;;;;;25.20;10.77;;;-2.90;99.90;;;;;;4861257;29;20239;-73
2022/12/14 20:36:49;;;;;;;28.43;10.40;;;-2.90;99.90;;;;;;4861288;29;20214;-72
2022/12/14 20:39:16;;;;;;;19.10;8.70;;;-3.10;99.90;;;;;;4860993;29;20239;-73
2022/12/14 20:41:43;;;;;;;16.20;9.13;;;-3.30;99.90;;;;;;4861198;29;20240;-73
2022/12/14 20:44:10;;;;;;;18.47;7.83;;;-3.40;99.90;;;;;;4861207;29;20287;-73
2022/12/14 20:46:39;;;;;;;20.53;10.20;;;-3.40;99.90;;;;;;4861064;29;20216;-73
2022/12/14 20:49:07;;;;;;;18.33;9.40;;;-3.40;99.90;;;;;;4860886;29;20314;-73
2022/12/14 20:51:37;;;;;;;18.47;9.60;;;-3.40;99.90;;;;;;4861140;29;20222;-73
2022/12/14 20:54:06;;;;;;;13.87;8.87;;;-3.20;99.90;;;;;;4860580;29;20250;-73
2022/12/14 20:56:34;;;;;;;15.00;7.80;;;-3.20;99.90;;;;;;4860611;29;20699;-73
2022/12/14 20:59:01;;;;;;;24.70;8.70;;;-3.20;99.90;;;;;;4861105;29;20236;-73
2022/12/14 21:01:28;;;;;;;19.47;9.67;;;-3.20;99.90;;;;;;4860602;29;20664;-72
2022/12/14 21:03:56;;;;;;;20.30;8.70;;;-3.30;99.90;;;;;;4860604;29;20212;-71
2022/12/14 21:06:23;;;;;;;15.83;7.63;;;-3.40;99.90;;;;;;4860815;29;20215;-73
2022/12/14 21:09:10;;;;;;;53.03;9.67;;;-3.50;99.90;;;;;;4860586;29;20598;-72
2022/12/14 21:14:25;;;;;;;14.03;7.43;;;-3.60;99.90;;;;;;4860423;29;20246;-73
2022/12/14 21:16:52;;;;;;;13.77;7.17;;;-3.60;99.90;;;;;;4860343;29;20216;-73
2022/12/14 21:19:20;;;;;;;17.60;7.73;;;-3.60;99.90;;;;;;4860138;29;20232;-73
2022/12/14 21:21:47;;;;;;;22.97;8.33;;;-3.60;99.90;;;;;;4860392;29;20668;-72
2022/12/14 21:24:15;;;;;;;36.00;9.00;;;-3.70;99.90;;;;;;4860454;29;20212;-73
2022/12/14 21:26:42;;;;;;;20.93;8.37;;;-3.70;99.90;;;;;;4860485;29;20303;-73
2022/12/14 21:29:10;;;;;;;15.97;8.23;;;-3.70;99.90;;;;;;4860486;29;20235;-73
2022/12/14 21:31:39;;;;;;;14.20;7.97;;;-3.70;99.90;;;;;;4860565;29;20218;-73
2022/12/14 21:34:05;;;;;;;17.20;7.20;;;-3.70;99.90;;;;;;4860515;29;20240;-73
2022/12/14 21:36:33;;;;;;;12.50;5.93;;;-3.50;99.90;;;;;;4860721;29;20549;-73
2022/12/14 21:39:02;;;;;;;11.17;6.00;;;-3.50;99.90;;;;;;4860575;29;20730;-72
2022/12/14 21:44:11;;;;;;;16.30;7.30;;;-3.50;99.90;;;;;;4847810;29;20212;-72
2022/12/14 21:46:37;;;;;;;11.03;7.30;;;-3.40;99.90;;;;;;4860624;29;20216;-71
2022/12/14 21:49:05;;;;;;;16.53;7.10;;;-3.40;99.90;;;;;;4859933;29;20599;-71
2022/12/14 21:51:32;;;;;;;12.90;6.90;;;-3.50;99.90;;;;;;4859490;29;20212;-71
2022/12/14 21:53:59;;;;;;;21.67;7.70;;;-3.50;99.90;;;;;;4859605;29;20247;-71
2022/12/14 21:59:15;;;;;;;14.90;6.17;;;-3.60;99.90;;;;;;4860069;29;20620;-70
2022/12/14 22:01:42;;;;;;;10.20;6.47;;;-3.60;99.90;;;;;;4860600;29;20664;-71
2022/12/14 22:04:08;;;;;;;18.73;7.23;;;-3.50;99.90;;;;;;4860303;29;20252;-71
2022/12/14 22:06:35;;;;;;;12.27;6.33;;;-3.50;99.90;;;;;;4859756;29;20218;-71
